createdAt,value
2018-03-28T04:43:47.913Z,28.52
2018-03-28T04:46:15.535Z,27.33
2018-03-28T04:48:43.071Z,27.23
2018-03-28T04:51:11.295Z,26.33
2018-03-28T04:53:38.884Z,26.13
2018-03-28T04:56:07.168Z,28.10
2018-03-28T04:58:34.746Z,28.27
2018-03-28T05:01:02.668Z,27.17
2018-03-28T05:03:30.239Z,26.03
2018-03-28T05:05:57.761Z,28.07
2018-03-28T05:08:25.349Z,29.43
2018-03-28T05:10:53.726Z,26.70
2018-03-28T05:13:21.386Z,26.67
2018-03-28T05:15:48.977Z,25.85
2018-03-28T05:18:16.478Z,26.30
2018-03-28T05:20:44.009Z,28.97
2018-03-28T05:23:11.982Z,23.20
2018-03-28T05:25:39.601Z,24.95
2018-03-28T05:28:07.158Z,25.10
2018-03-28T05:30:34.713Z,24.42
2018-03-28T05:33:02.281Z,24.47
2018-03-28T05:35:29.870Z,24.12
2018-03-28T05:37:57.826Z,23.73
2018-03-28T05:40:25.421Z,24.80
2018-03-28T05:42:54.063Z,25.10
2018-03-28T05:45:21.818Z,25.60
2018-03-28T05:47:49.378Z,24.50
2018-03-28T05:50:16.973Z,22.97
2018-03-28T05:52:44.547Z,23.00
2018-03-28T05:55:12.499Z,23.60
2018-03-28T05:57:40.599Z,22.17
2018-03-28T06:00:08.881Z,21.10
2018-03-28T06:02:36.497Z,22.70
2018-03-28T06:05:04.122Z,21.58
2018-03-28T06:07:31.803Z,21.13
2018-03-28T06:09:59.780Z,22.17
2018-03-28T06:12:27.348Z,20.98
2018-03-28T06:14:54.917Z,21.63
2018-03-28T06:17:22.531Z,23.60
2018-03-28T06:19:50.084Z,23.20
2018-03-28T06:22:17.767Z,23.23
2018-03-28T06:24:45.346Z,22.10
2018-03-28T06:27:12.985Z,20.33
2018-03-28T06:29:40.577Z,22.33
2018-03-28T06:32:08.440Z,20.00
2018-03-28T06:34:36.030Z,21.20
2018-03-28T06:37:04.080Z,18.42
2018-03-28T06:39:31.672Z,19.10
2018-03-28T06:41:59.261Z,17.62
2018-03-28T06:44:26.805Z,19.00
2018-03-28T06:46:54.376Z,16.40
2018-03-28T06:49:21.939Z,17.80
2018-03-28T06:51:49.525Z,16.70
2018-03-28T06:54:18.163Z,16.55
2018-03-28T06:56:45.777Z,13.90
2018-03-28T06:59:13.446Z,14.33
2018-03-28T07:01:41.066Z,13.53
2018-03-28T07:04:08.610Z,13.70
2018-03-28T07:06:36.190Z,13.30
2018-03-28T07:09:03.791Z,12.73
2018-03-28T07:11:31.296Z,11.87
2018-03-28T07:13:58.856Z,12.03
2018-03-28T07:16:26.443Z,12.00
2018-03-28T07:18:54.020Z,11.00
2018-03-28T07:21:21.701Z,11.37
2018-03-28T07:23:49.684Z,10.80
2018-03-28T07:26:17.234Z,11.60
2018-03-28T07:28:44.826Z,12.37
2018-03-28T07:31:12.352Z,10.60
2018-03-28T07:33:39.941Z,10.67
2018-03-28T07:36:07.503Z,9.77
2018-03-28T07:38:35.053Z,10.80
2018-03-28T07:41:02.741Z,9.77
2018-03-28T07:43:30.351Z,9.33
2018-03-28T07:45:58.289Z,9.27
2018-03-28T07:48:25.869Z,8.90
2018-03-28T07:50:54.634Z,8.90
2018-03-28T07:53:22.232Z,8.40
2018-03-28T07:55:50.180Z,7.47
2018-03-28T07:58:17.744Z,8.50
2018-03-28T08:00:45.376Z,8.27
2018-03-28T08:03:13.005Z,8.60
2018-03-28T08:05:41.597Z,8.23
2018-03-28T08:08:09.190Z,9.80
2018-03-28T08:10:36.798Z,8.52
2018-03-28T08:13:04.404Z,8.00
2018-03-28T08:15:32.005Z,9.07
2018-03-28T08:17:59.993Z,8.03
2018-03-28T08:20:27.572Z,8.13
2018-03-28T08:22:55.150Z,7.37
2018-03-28T08:25:22.697Z,7.43
2018-03-28T08:27:50.274Z,9.13
2018-03-28T08:30:17.858Z,7.40
2018-03-28T08:32:45.433Z,9.27
2018-03-28T08:35:12.995Z,8.00
2018-03-28T08:37:40.940Z,9.25
2018-03-28T08:40:08.519Z,8.00
2018-03-28T08:42:36.799Z,7.80
2018-03-28T08:45:04.457Z,9.10
2018-03-28T08:47:32.385Z,8.20
2018-03-28T08:50:00.001Z,7.70
2018-03-28T08:52:27.558Z,7.30
2018-03-28T08:54:55.512Z,7.10
2018-03-28T08:57:23.082Z,7.55
2018-03-28T08:59:51.044Z,7.70
2018-03-28T09:02:19.005Z,7.10
2018-03-28T09:04:46.976Z,7.33
2018-03-28T09:07:14.951Z,7.27
2018-03-28T09:09:42.494Z,7.37
2018-03-28T09:12:10.050Z,6.30
2018-03-28T09:14:37.629Z,6.20
2018-03-28T09:17:05.685Z,7.30
2018-03-28T09:19:33.336Z,7.60
2018-03-28T09:22:00.899Z,7.20
2018-03-28T09:24:28.492Z,8.27
2018-03-28T09:26:56.449Z,7.67
2018-03-28T09:29:24.494Z,6.97
2018-03-28T09:31:52.085Z,7.17
2018-03-28T09:34:20.025Z,6.93
2018-03-28T09:36:47.612Z,6.80
2018-03-28T09:39:15.677Z,7.83
2018-03-28T09:41:43.245Z,7.67
2018-03-28T09:44:11.212Z,7.55
2018-03-28T09:46:39.210Z,7.85
2018-03-28T09:49:06.801Z,8.10
2018-03-28T09:51:34.519Z,7.90
2018-03-28T09:54:02.510Z,7.97
2018-03-28T09:56:30.081Z,8.23
2018-03-28T09:58:57.691Z,7.85
2018-03-28T10:01:30.234Z,8.15
2018-03-28T10:04:03.445Z,7.55
2018-03-28T10:06:31.094Z,7.68
2018-03-28T10:08:58.694Z,8.25
2018-03-28T10:11:26.673Z,8.17
2018-03-28T10:13:54.673Z,7.25
2018-03-28T10:16:22.245Z,7.90
2018-03-28T10:18:49.855Z,7.87
2018-03-28T10:21:17.948Z,7.03
2018-03-28T10:23:45.538Z,6.77
2018-03-28T10:26:13.107Z,7.40
2018-03-28T10:28:40.698Z,8.20
2018-03-28T10:31:09.205Z,8.38
2018-03-28T10:33:36.785Z,7.70
2018-03-28T10:36:04.399Z,7.87
2018-03-28T10:38:32.383Z,7.43
2018-03-28T10:41:00.345Z,7.43
2018-03-28T10:43:28.309Z,8.30
2018-03-28T10:45:56.277Z,8.13
2018-03-28T10:48:24.283Z,7.47
2018-03-28T10:50:51.841Z,7.90
2018-03-28T10:53:19.458Z,7.37
2018-03-28T10:55:48.097Z,9.40
2018-03-28T10:58:15.685Z,10.20
2018-03-28T11:00:43.294Z,8.60
2018-03-28T11:03:10.885Z,8.03
2018-03-28T11:05:38.500Z,8.40
2018-03-28T11:08:06.444Z,10.03
2018-03-28T11:10:34.065Z,9.17
2018-03-28T11:13:05.392Z,8.77
2018-03-28T11:15:32.968Z,9.70
2018-03-28T11:18:00.556Z,8.60
2018-03-28T11:20:28.119Z,9.73
2018-03-28T11:22:55.682Z,8.30
2018-03-28T11:25:23.274Z,7.85
2018-03-28T11:27:50.883Z,8.20
2018-03-28T11:30:19.316Z,8.30
2018-03-28T11:32:47.245Z,8.00
2018-03-28T11:35:14.830Z,9.10
2018-03-28T11:37:42.940Z,8.77
2018-03-28T11:40:10.593Z,8.30
2018-03-28T11:42:38.202Z,8.07
2018-03-28T11:45:05.894Z,9.40
2018-03-28T11:47:33.870Z,9.97
2018-03-28T11:50:01.819Z,9.63
2018-03-28T11:52:30.104Z,8.00
2018-03-28T11:54:58.094Z,8.10
2018-03-28T11:57:26.098Z,7.65
2018-03-28T11:59:53.666Z,9.33
2018-03-28T12:02:21.266Z,8.47
2018-03-28T12:04:49.290Z,9.32
2018-03-28T12:07:16.884Z,8.80
2018-03-28T12:09:55.472Z,9.40
2018-03-28T12:12:27.505Z,9.07
2018-03-28T12:14:55.089Z,8.70
2018-03-28T12:17:22.653Z,8.70
2018-03-28T12:19:50.246Z,8.47
2018-03-28T12:22:17.846Z,8.40
2018-03-28T12:24:45.444Z,8.63
2018-03-28T12:27:13.022Z,9.10
2018-03-28T12:29:40.616Z,8.00
2018-03-28T12:32:08.214Z,8.63
2018-03-28T12:34:35.757Z,8.90
2018-03-28T12:37:04.608Z,8.10
2018-03-28T12:39:32.205Z,7.90
2018-03-28T12:41:59.734Z,8.25
2018-03-28T12:44:27.709Z,9.30
2018-03-28T12:46:55.686Z,8.00
2018-03-28T12:49:23.734Z,7.97
2018-03-28T12:51:51.322Z,7.90
2018-03-28T12:54:18.882Z,8.88
2018-03-28T12:56:46.492Z,8.17
2018-03-28T12:59:14.087Z,7.30
2018-03-28T13:01:42.029Z,8.93
2018-03-28T13:04:22.991Z,8.63
2018-03-28T13:06:50.567Z,9.38
2018-03-28T13:09:18.140Z,8.50
2018-03-28T13:11:45.794Z,9.77
2018-03-28T13:14:13.364Z,8.67
2018-03-28T13:16:41.367Z,9.23
2018-03-28T13:19:08.985Z,9.90
2018-03-28T13:21:36.590Z,8.90
2018-03-28T13:24:04.189Z,10.07
2018-03-28T13:26:31.738Z,9.18
2018-03-28T13:28:59.301Z,10.43
2018-03-28T13:31:27.008Z,10.27
2018-03-28T13:33:54.968Z,10.20
2018-03-28T13:36:22.519Z,10.77
2018-03-28T13:38:50.122Z,10.43
2018-03-28T13:41:17.720Z,11.23
2018-03-28T13:43:45.294Z,12.40
2018-03-28T13:46:13.674Z,11.77
2018-03-28T13:48:41.220Z,11.33
2018-03-28T13:51:08.792Z,10.90
2018-03-28T13:53:36.350Z,11.73
2018-03-28T13:56:03.964Z,12.70
2018-03-28T13:58:31.579Z,12.47
2018-03-28T14:00:59.167Z,13.27
2018-03-28T14:03:28.505Z,14.10
2018-03-28T14:05:56.056Z,13.73
2018-03-28T14:08:23.633Z,12.23
2018-03-28T14:10:51.197Z,12.27
2018-03-28T14:13:18.765Z,11.60
2018-03-28T14:15:46.363Z,13.00
2018-03-28T14:18:15.372Z,12.90
2018-03-28T14:20:42.954Z,12.00
2018-03-28T14:23:10.539Z,11.83
2018-03-28T14:25:38.133Z,11.17
2018-03-28T14:28:05.714Z,12.20
2018-03-28T14:30:33.300Z,11.77
2018-03-28T14:33:00.886Z,10.83
2018-03-28T14:35:28.433Z,9.00
2018-03-28T14:37:55.995Z,10.37
2018-03-28T14:40:23.554Z,10.93
2018-03-28T14:42:54.591Z,10.53
2018-03-28T14:45:20.467Z,8.87
2018-03-28T14:47:48.064Z,9.00
2018-03-28T14:50:15.712Z,8.87
2018-03-28T14:52:43.253Z,10.47
2018-03-28T14:55:11.692Z,9.27
2018-03-28T14:57:39.241Z,10.10
2018-03-28T15:00:07.274Z,8.77
2018-03-28T15:02:34.887Z,8.53
2018-03-28T15:05:02.453Z,8.73
2018-03-28T15:07:30.045Z,8.43
2018-03-28T15:09:57.622Z,9.10
2018-03-28T15:12:25.218Z,8.63
2018-03-28T15:14:52.770Z,7.80
2018-03-28T15:17:20.353Z,7.83
2018-03-28T15:19:48.371Z,10.57
2018-03-28T15:22:15.922Z,8.43
2018-03-28T15:24:43.485Z,8.98
2018-03-28T15:27:11.110Z,8.97
2018-03-28T15:29:39.100Z,8.77
2018-03-28T15:32:06.644Z,8.50
2018-03-28T15:34:34.985Z,9.03
2018-03-28T15:37:02.560Z,7.23
2018-03-28T15:39:30.167Z,7.77
2018-03-28T15:41:57.668Z,7.70
2018-03-28T15:44:25.244Z,7.30
2018-03-28T15:46:52.797Z,8.63
2018-03-28T15:49:20.420Z,8.47
2018-03-28T15:51:47.983Z,7.17
2018-03-28T15:54:15.581Z,7.63
2018-03-28T15:56:43.157Z,7.80
2018-03-28T15:59:11.102Z,7.50
2018-03-28T16:01:38.664Z,8.37
2018-03-28T16:04:06.230Z,8.67
2018-03-28T16:06:34.179Z,8.63
2018-03-28T16:09:01.731Z,8.05
2018-03-28T16:11:29.292Z,8.97
2018-03-28T16:13:56.850Z,8.73
2018-03-28T16:16:24.451Z,8.70
2018-03-28T16:18:51.989Z,8.10
2018-03-28T16:21:19.645Z,8.07
2018-03-28T16:23:47.234Z,8.07
2018-03-28T16:26:15.220Z,9.93
2018-03-28T16:28:43.145Z,8.33
2018-03-28T16:31:10.711Z,9.00
2018-03-28T16:33:38.262Z,9.30
2018-03-28T16:36:05.816Z,9.40
2018-03-28T16:38:33.465Z,8.00
2018-03-28T16:41:01.108Z,8.30
2018-03-28T16:43:28.671Z,9.27
2018-03-28T16:45:56.215Z,8.80
2018-03-28T16:48:23.764Z,8.47
2018-03-28T16:50:51.321Z,8.33
2018-03-28T16:53:19.029Z,8.00
2018-03-28T16:55:46.673Z,9.03
2018-03-28T16:58:14.294Z,7.90
2018-03-28T17:00:42.295Z,7.90
2018-03-28T17:03:09.856Z,8.67
2018-03-28T17:05:37.423Z,7.65
2018-03-28T17:08:04.973Z,7.03
2018-03-28T17:10:32.546Z,7.43
2018-03-28T17:13:00.145Z,8.10
2018-03-28T17:15:27.930Z,9.20
2018-03-28T17:17:55.863Z,9.30
2018-03-28T17:20:23.423Z,9.07
2018-03-28T17:22:51.201Z,11.60
2018-03-28T17:25:18.818Z,11.37
2018-03-28T17:27:46.426Z,12.07
2018-03-28T17:30:13.981Z,12.83
2018-03-28T17:32:42.029Z,12.20
2018-03-28T17:35:09.602Z,10.90
2018-03-28T17:37:44.661Z,12.30
2018-03-28T17:40:12.606Z,11.40
2018-03-28T17:42:40.169Z,12.40
2018-03-28T17:45:07.792Z,13.32
2018-03-28T17:47:35.713Z,13.45
2018-03-28T17:50:03.343Z,13.80
2018-03-28T17:52:32.172Z,14.80
2018-03-28T17:55:00.203Z,13.40
2018-03-28T17:57:27.758Z,13.60
2018-03-28T17:59:55.300Z,13.07
2018-03-28T18:02:22.878Z,13.67
2018-03-28T18:04:50.451Z,13.80
2018-03-28T18:07:18.079Z,15.20
2018-03-28T18:09:45.719Z,14.57
2018-03-28T18:12:13.349Z,14.20
2018-03-28T18:14:42.652Z,16.25
2018-03-28T18:17:11.234Z,15.77
2018-03-28T18:19:38.870Z,15.03
2018-03-28T18:22:08.146Z,14.90
2018-03-28T18:24:37.578Z,16.30
2018-03-28T18:27:06.268Z,15.60
2018-03-28T18:29:35.041Z,15.32
2018-03-28T18:32:03.075Z,15.52
2018-03-28T18:34:33.633Z,16.00
2018-03-28T18:37:02.534Z,19.07
2018-03-28T18:39:34.419Z,17.60
2018-03-28T18:42:02.694Z,17.63
2018-03-28T18:44:31.907Z,17.27
2018-03-28T18:47:01.141Z,18.50
2018-03-28T18:49:28.855Z,19.48
2018-03-28T18:51:57.996Z,20.47
2018-03-28T18:54:26.588Z,19.33
2018-03-28T18:56:54.900Z,18.10
2018-03-28T18:59:23.521Z,19.93
2018-03-28T19:01:53.750Z,19.93
2018-03-28T19:04:21.940Z,19.83
2018-03-28T19:06:49.609Z,19.97
2018-03-28T19:09:18.241Z,20.17
2018-03-28T19:11:46.014Z,19.60
2018-03-28T19:14:13.774Z,20.20
2018-03-28T19:16:41.477Z,20.60
2018-03-28T19:19:09.870Z,21.10
2018-03-28T19:21:37.601Z,18.07
2018-03-28T19:24:05.394Z,21.40
2018-03-28T19:26:35.080Z,22.30
2018-03-28T19:29:02.825Z,21.98
2018-03-28T19:31:30.723Z,20.48
2018-03-28T19:33:58.785Z,22.33
2018-03-28T19:36:29.383Z,21.97
2018-03-28T19:38:57.104Z,21.33
2018-03-28T19:41:24.868Z,22.70
2018-03-28T19:43:52.514Z,22.77
2018-03-28T19:46:20.369Z,22.60
2018-03-28T19:48:48.411Z,22.57
2018-03-28T19:51:16.338Z,21.80
2018-03-28T19:53:44.323Z,21.77
2018-03-28T19:56:34.226Z,21.17
2018-03-28T19:59:01.999Z,22.17
2018-03-28T20:01:30.832Z,21.40
2018-03-28T20:03:58.602Z,22.17
2018-03-28T20:06:26.613Z,22.17
2018-03-28T20:08:54.293Z,23.13
2018-03-28T20:11:22.075Z,21.35
2018-03-28T20:13:49.719Z,21.02
2018-03-28T20:16:18.218Z,21.20
2018-03-28T20:18:45.936Z,21.42
2018-03-28T20:21:15.199Z,18.37
2018-03-28T20:23:43.092Z,13.70
2018-03-28T20:26:11.342Z,15.23
2018-03-28T20:28:39.117Z,15.53
2018-03-28T20:31:06.751Z,13.35
2018-03-28T20:33:34.757Z,13.88
2018-03-28T20:36:02.316Z,15.43
2018-03-28T20:38:30.620Z,15.13
2018-03-28T20:40:58.200Z,11.80
2018-03-28T20:43:25.920Z,11.07
2018-03-28T20:45:53.674Z,11.50
2018-03-28T20:48:21.221Z,10.70
2018-03-28T20:50:48.879Z,9.80
2018-03-28T20:53:16.510Z,8.40
2018-03-28T20:55:44.751Z,6.63
2018-03-28T20:58:13.158Z,5.20
2018-03-28T21:00:40.894Z,4.97
2018-03-28T21:03:08.410Z,4.00
2018-03-28T21:05:36.337Z,3.37
2018-03-28T21:08:03.928Z,2.83
2018-03-28T21:10:32.102Z,2.80
2018-03-28T21:13:00.090Z,2.53
2018-03-28T21:15:27.788Z,2.77
2018-03-28T21:17:55.473Z,2.20
2018-03-28T21:20:23.107Z,2.43
2018-03-28T21:22:51.634Z,2.83
2018-03-28T21:25:19.604Z,3.10
2018-03-28T21:27:48.153Z,3.55
2018-03-28T21:30:17.091Z,4.47
2018-03-28T21:32:45.598Z,4.65
2018-03-28T21:35:13.945Z,5.40
2018-03-28T21:37:43.058Z,5.72
2018-03-28T21:40:10.680Z,4.83
2018-03-28T21:42:39.570Z,5.57
2018-03-28T21:45:08.260Z,5.20
2018-03-28T21:47:36.116Z,5.53
2018-03-28T21:50:03.722Z,5.80
2018-03-28T21:52:38.373Z,5.57
2018-03-28T21:55:11.776Z,6.07
2018-03-28T21:57:39.700Z,5.53
2018-03-28T22:00:09.402Z,6.15
2018-03-28T22:02:44.708Z,6.82
2018-03-28T22:05:13.928Z,7.37
2018-03-28T22:07:41.673Z,7.57
2018-03-28T22:10:10.330Z,8.00
2018-03-28T22:12:38.104Z,8.10
2018-03-28T22:15:06.688Z,6.85
2018-03-28T22:17:34.254Z,8.13
2018-03-28T22:20:07.491Z,7.47
2018-03-28T22:22:43.299Z,6.87
2018-03-28T22:25:16.317Z,7.60
2018-03-28T22:27:47.399Z,8.33
2018-03-28T22:30:17.995Z,8.40
2018-03-28T22:32:46.485Z,10.13
2018-03-28T22:35:15.562Z,7.83
2018-03-28T22:37:44.289Z,6.70
2018-03-28T22:40:15.057Z,6.53
2018-03-28T22:42:43.354Z,6.00
2018-03-28T22:45:12.460Z,6.60
2018-03-28T22:47:45.186Z,6.70
2018-03-28T22:50:13.944Z,5.57
2018-03-28T22:52:48.179Z,5.33
2018-03-28T22:55:16.645Z,4.50
2018-03-28T22:57:45.081Z,4.43
2018-03-28T23:00:15.047Z,4.73
2018-03-28T23:02:43.956Z,6.53
2018-03-28T23:05:13.719Z,6.87
2018-03-28T23:07:45.287Z,5.87
2018-03-28T23:10:19.411Z,5.53
2018-03-28T23:12:48.584Z,5.55
2018-03-28T23:15:23.663Z,6.10
2018-03-28T23:17:52.266Z,6.43
2018-03-28T23:20:24.162Z,6.43
2018-03-28T23:22:56.137Z,6.20
2018-03-28T23:25:27.649Z,7.50
2018-03-28T23:27:57.838Z,7.67
2018-03-28T23:30:26.772Z,6.60
2018-03-28T23:32:57.993Z,7.30
2018-03-28T23:35:29.790Z,7.50
2018-03-28T23:38:00.534Z,7.12
2018-03-28T23:40:28.684Z,6.40
2018-03-28T23:42:58.244Z,7.23
2018-03-28T23:45:29.473Z,6.70
2018-03-28T23:48:00.196Z,6.00
2018-03-28T23:50:30.593Z,6.12
2018-03-28T23:52:59.422Z,5.68
2018-03-28T23:55:29.457Z,7.13
2018-03-28T23:57:58.792Z,6.10
